createdAt,value
2022-09-29T00:02:55.684Z,91995.26
2022-09-29T00:08:03.583Z,92002.23
2022-09-29T00:13:11.211Z,91990.73
2022-09-29T00:18:18.286Z,91995.22
2022-09-29T00:23:30.649Z,91993.25
2022-09-29T00:28:42.744Z,92000.39
2022-09-29T00:33:51.106Z,92010.74
2022-09-29T00:38:59.848Z,92014.41
2022-09-29T00:44:17.598Z,92018.39
2022-09-29T00:49:47.401Z,92021.37
2022-09-29T00:55:04.482Z,92022.61
2022-09-29T01:00:17.414Z,92013.63
2022-09-29T01:05:28.648Z,92003.66
2022-09-29T01:10:39.138Z,91995.84
2022-09-29T01:15:47.892Z,91994.61
2022-09-29T01:21:08.735Z,92000.93
2022-09-29T01:26:50.252Z,91999.20
2022-09-29T01:32:20.989Z,92001.12
2022-09-29T01:37:42.330Z,91992.78
2022-09-29T01:43:12.845Z,91988.22
2022-09-29T01:48:30.395Z,91991.89
2022-09-29T01:53:41.594Z,91991.52
2022-09-29T01:58:55.195Z,92002.31
2022-09-29T02:04:21.506Z,91998.74
2022-09-29T02:09:33.728Z,92000.27
2022-09-29T02:14:46.983Z,91998.70
2022-09-29T02:19:56.039Z,91998.88
2022-09-29T02:25:03.641Z,91998.97
2022-09-29T02:30:14.182Z,92007.33
2022-09-29T02:35:21.898Z,92010.05
2022-09-29T02:40:38.503Z,92011.63
2022-09-29T02:46:01.832Z,92011.46
2022-09-29T02:51:39.218Z,92005.20
2022-09-29T02:56:53.498Z,92007.48
2022-09-29T03:02:00.219Z,92010.04
2022-09-29T03:07:07.073Z,92015.94
2022-09-29T03:12:14.005Z,92022.69
2022-09-29T03:17:21.306Z,92021.92
2022-09-29T03:22:28.629Z,92022.88
2022-09-29T03:27:37.227Z,92026.98
2022-09-29T03:32:45.379Z,92030.44
2022-09-29T03:37:51.988Z,92041.66
2022-09-29T03:42:58.953Z,92043.40
2022-09-29T03:48:06.400Z,92049.28
2022-09-29T03:53:14.903Z,92050.05
2022-09-29T03:58:23.340Z,92063.27
2022-09-29T04:03:32.042Z,92074.61
2022-09-29T04:08:42.009Z,92077.19
2022-09-29T04:13:48.897Z,92068.36
2022-09-29T04:18:55.958Z,92059.98
2022-09-29T04:24:03.873Z,92056.94
2022-09-29T04:29:10.792Z,92064.63
2022-09-29T04:34:19.223Z,92062.70
2022-09-29T04:39:27.253Z,92063.09
2022-09-29T04:44:34.942Z,92081.94
2022-09-29T04:49:43.152Z,92097.19
2022-09-29T04:54:49.928Z,92107.72
2022-09-29T04:59:58.087Z,92115.84
2022-09-29T05:05:07.372Z,92126.75
2022-09-29T05:10:14.712Z,92131.48
2022-09-29T05:15:26.000Z,92131.30
2022-09-29T05:20:39.892Z,92131.01
2022-09-29T05:25:44.495Z,92140.02
2022-09-29T05:30:51.207Z,92142.69
2022-09-29T05:35:59.001Z,92142.92
2022-09-29T05:41:13.193Z,92149.30
2022-09-29T05:46:22.972Z,92142.97
2022-09-29T05:51:31.429Z,92156.34
2022-09-29T05:56:40.729Z,92183.14
2022-09-29T06:01:46.327Z,92182.27
2022-09-29T06:06:54.282Z,92172.05
2022-09-29T06:12:02.218Z,92173.63
2022-09-29T06:17:08.902Z,92174.18
2022-09-29T06:22:16.562Z,92178.12
2022-09-29T06:27:23.664Z,92185.45
2022-09-29T06:32:30.580Z,92191.20
2022-09-29T06:37:50.619Z,92195.98
2022-09-29T06:43:33.799Z,92192.80
2022-09-29T06:48:32.398Z,92191.42
2022-09-29T06:53:40.103Z,92199.76
2022-09-29T06:58:48.401Z,92199.08
2022-09-29T07:03:55.937Z,92189.34
2022-09-29T07:09:03.546Z,92201.57
2022-09-29T07:14:10.210Z,92199.00
2022-09-29T07:19:18.581Z,92196.81
2022-09-29T07:24:25.899Z,92203.50
2022-09-29T07:29:33.990Z,92206.20
2022-09-29T07:34:40.686Z,92223.76
2022-09-29T07:39:47.352Z,92227.00
2022-09-29T07:44:54.726Z,92230.56
2022-09-29T07:50:01.454Z,92229.88
2022-09-29T07:55:10.197Z,92239.63
2022-09-29T08:00:18.376Z,92250.16
2022-09-29T08:05:25.095Z,92246.80
2022-09-29T08:10:46.837Z,92240.78
2022-09-29T08:15:43.278Z,92264.06
2022-09-29T08:20:50.973Z,92274.32
2022-09-29T08:26:08.049Z,92272.11
2022-09-29T08:31:21.772Z,92275.24
2022-09-29T08:36:31.976Z,92277.89
2022-09-29T08:42:04.175Z,92281.06
2022-09-29T08:47:45.164Z,92293.47
2022-09-29T08:52:52.056Z,92298.84
2022-09-29T08:58:00.922Z,92292.44
2022-09-29T09:03:17.941Z,92290.25
2022-09-29T09:09:02.490Z,92304.60
2022-09-29T09:14:46.447Z,92306.82
2022-09-29T09:20:25.957Z,92313.22
2022-09-29T09:25:40.179Z,92318.00
2022-09-29T09:31:02.892Z,92310.50
2022-09-29T09:36:33.144Z,92306.17
2022-09-29T09:41:36.091Z,92302.13
2022-09-29T09:46:50.161Z,92311.14
2022-09-29T09:57:52.943Z,92323.42
2022-09-29T10:03:03.495Z,92321.89
2022-09-29T10:08:26.175Z,92310.50
2022-09-29T10:13:35.157Z,92310.74
2022-09-29T10:18:49.255Z,92310.36
2022-09-29T10:24:00.333Z,92302.47
2022-09-29T10:29:37.240Z,92305.81
2022-09-29T10:34:48.164Z,92303.64
2022-09-29T10:40:15.496Z,92315.71
2022-09-29T10:45:31.758Z,92333.36
2022-09-29T10:56:19.400Z,92329.16
2022-09-29T11:01:30.537Z,92329.66
2022-09-29T11:06:44.089Z,92337.69
2022-09-29T11:12:02.267Z,92324.75
2022-09-29T11:17:26.093Z,92325.83
2022-09-29T11:23:11.717Z,92327.95
2022-09-29T11:28:50.251Z,92313.08
2022-09-29T11:34:20.399Z,92318.97
2022-09-29T11:39:49.686Z,92324.27
2022-09-29T11:45:11.485Z,92323.03
2022-09-29T11:50:44.117Z,92327.77
2022-09-29T11:56:00.662Z,92321.14
2022-09-29T12:01:32.094Z,92323.09
2022-09-29T12:06:52.215Z,92314.64
2022-09-29T12:12:24.305Z,92309.85
2022-09-29T12:17:35.067Z,92315.05
2022-09-29T12:22:44.846Z,92313.00
2022-09-29T12:27:54.777Z,92329.97
2022-09-29T12:33:27.421Z,92330.11
2022-09-29T12:38:43.170Z,92337.04
2022-09-29T12:44:11.139Z,92339.86
2022-09-29T12:49:39.853Z,92341.12
2022-09-29T12:54:53.745Z,92342.69
2022-09-29T13:00:09.366Z,92336.51
2022-09-29T13:05:34.045Z,92357.93
2022-09-29T13:11:06.095Z,92355.87
2022-09-29T13:16:28.051Z,92345.88
2022-09-29T13:21:55.783Z,92350.89
2022-09-29T13:27:12.648Z,92362.98
2022-09-29T13:32:20.074Z,92354.08
2022-09-29T13:37:31.229Z,92358.88
2022-09-29T13:42:49.829Z,92367.23
2022-09-29T13:48:02.939Z,92366.41
2022-09-29T13:53:28.932Z,92348.63
2022-09-29T13:58:42.138Z,92339.17
2022-09-29T14:03:49.461Z,92327.48
2022-09-29T14:09:19.137Z,92336.91
2022-09-29T14:14:39.127Z,92354.23
2022-09-29T14:20:07.984Z,92387.52
2022-09-29T14:25:19.360Z,92377.75
2022-09-29T14:30:43.780Z,92367.21
2022-09-29T14:36:03.691Z,92354.69
2022-09-29T14:41:15.558Z,92341.02
2022-09-29T14:46:56.114Z,92344.27
2022-09-29T14:52:19.131Z,92350.20
2022-09-29T14:57:50.655Z,92341.97
2022-09-29T15:03:16.858Z,92347.44
2022-09-29T15:08:26.513Z,92338.48
2022-09-29T15:13:35.385Z,92342.37
2022-09-29T15:19:04.700Z,92345.84
2022-09-29T15:24:32.287Z,92342.28
2022-09-29T15:29:40.260Z,92336.26
2022-09-29T15:34:52.522Z,92347.87
2022-09-29T15:39:57.700Z,92356.86
2022-09-29T15:45:21.907Z,92345.16
2022-09-29T15:50:33.344Z,92349.74
2022-09-29T15:55:41.299Z,92363.78
2022-09-29T16:00:48.984Z,92375.05
2022-09-29T16:06:06.090Z,92381.32
2022-09-29T16:11:29.354Z,92381.53
2022-09-29T16:16:46.027Z,92378.28
2022-09-29T16:22:07.742Z,92378.06
2022-09-29T16:27:40.092Z,92386.92
2022-09-29T16:32:47.928Z,92378.19
2022-09-29T16:37:55.034Z,92368.58
2022-09-29T16:43:02.139Z,92369.47
2022-09-29T16:48:12.059Z,92391.32
2022-09-29T16:53:34.217Z,92378.19
2022-09-29T16:58:40.906Z,92368.22
2022-09-29T17:03:50.439Z,92368.02
2022-09-29T17:08:59.023Z,92367.07
2022-09-29T17:14:07.119Z,92379.63
2022-09-29T17:19:16.288Z,92382.05
2022-09-29T17:24:23.998Z,92372.66
2022-09-29T17:29:32.862Z,92370.06
2022-09-29T17:34:40.162Z,92378.02
2022-09-29T17:39:48.144Z,92388.38
2022-09-29T17:44:55.614Z,92397.30
2022-09-29T17:50:20.520Z,92401.50
2022-09-29T17:55:29.936Z,92407.81
2022-09-29T18:00:42.057Z,92406.67
2022-09-29T18:05:55.113Z,92419.80
2022-09-29T18:11:04.590Z,92421.49
2022-09-29T18:16:15.089Z,92435.53
2022-09-29T18:21:22.460Z,92445.70
2022-09-29T18:26:29.236Z,92438.20
2022-09-29T18:31:38.558Z,92459.73
2022-09-29T18:36:47.416Z,92460.16
2022-09-29T18:41:55.280Z,92455.95
2022-09-29T18:47:02.473Z,92460.35
2022-09-29T18:52:10.658Z,92463.73
2022-09-29T18:57:18.893Z,92473.56
2022-09-29T19:02:27.335Z,92476.34
2022-09-29T19:07:36.157Z,92481.20
2022-09-29T19:12:49.645Z,92477.56
2022-09-29T19:17:58.737Z,92482.34
2022-09-29T19:23:06.066Z,92470.30
2022-09-29T19:28:12.790Z,92473.09
2022-09-29T19:33:23.371Z,92468.25
2022-09-29T19:38:32.268Z,92476.45
2022-09-29T19:43:39.447Z,92482.34
2022-09-29T19:48:46.574Z,92485.03
2022-09-29T19:53:54.978Z,92479.34
2022-09-29T19:59:01.903Z,92480.33
2022-09-29T20:04:11.562Z,92486.16
2022-09-29T20:09:20.875Z,92474.97
2022-09-29T20:14:31.618Z,92472.48
2022-09-29T20:19:38.300Z,92481.06
2022-09-29T20:24:45.626Z,92471.03
2022-09-29T20:29:52.422Z,92475.66
2022-09-29T20:34:59.153Z,92468.61
2022-09-29T20:40:06.298Z,92474.23
2022-09-29T20:45:14.338Z,92460.78
2022-09-29T20:50:21.639Z,92471.16
2022-09-29T20:55:28.371Z,92480.31
2022-09-29T21:00:35.054Z,92480.97
2022-09-29T21:05:43.354Z,92481.95
2022-09-29T21:10:50.555Z,92482.46
2022-09-29T21:15:59.631Z,92482.86
2022-09-29T21:21:11.242Z,92499.56
2022-09-29T21:26:24.038Z,92485.20
2022-09-29T21:31:36.490Z,92475.75
2022-09-29T21:36:43.912Z,92479.30
2022-09-29T21:41:51.423Z,92471.41
2022-09-29T21:46:58.517Z,92481.20
2022-09-29T21:52:05.860Z,92495.07
2022-09-29T21:57:13.143Z,92497.73
2022-09-29T22:02:19.993Z,92486.07
2022-09-29T22:07:27.536Z,92502.42
2022-09-29T22:12:36.430Z,92492.07
2022-09-29T22:17:45.650Z,92482.38
2022-09-29T22:22:55.138Z,92483.64
2022-09-29T22:28:03.081Z,92480.64
2022-09-29T22:33:10.785Z,92463.84
2022-09-29T22:38:18.938Z,92455.73
2022-09-29T22:43:29.413Z,92461.69
2022-09-29T22:48:37.447Z,92466.11
2022-09-29T22:53:45.636Z,92470.52
2022-09-29T22:58:52.512Z,92482.74
2022-09-29T23:04:01.529Z,92480.97
2022-09-29T23:09:10.289Z,92483.17
2022-09-29T23:14:18.206Z,92478.94
2022-09-29T23:19:25.767Z,92490.58
2022-09-29T23:24:33.073Z,92483.44
2022-09-29T23:29:40.323Z,92483.16
2022-09-29T23:34:48.451Z,92481.87
2022-09-29T23:39:55.866Z,92490.29
2022-09-29T23:45:03.084Z,92495.86
2022-09-29T23:50:11.896Z,92505.34
2022-09-29T23:55:19.735Z,92509.75
